createdAt,value
2017-11-12T00:00:21.797Z,0
2017-11-12T00:01:35.950Z,0
2017-11-12T00:02:37.827Z,0
2017-11-12T00:03:39.708Z,0
2017-11-12T00:04:41.589Z,0
2017-11-12T00:05:43.401Z,0
2017-11-12T00:06:45.216Z,0
2017-11-12T00:07:47.094Z,0
2017-11-12T00:08:48.969Z,0
2017-11-12T00:09:50.844Z,0
2017-11-12T00:11:04.996Z,0
2017-11-12T00:12:06.873Z,0
2017-11-12T00:13:08.748Z,0
2017-11-12T00:14:10.624Z,0
2017-11-12T00:15:12.440Z,0
2017-11-12T00:16:14.253Z,0
2017-11-12T00:17:16.132Z,0
2017-11-12T00:18:18.007Z,0
2017-11-12T00:19:19.884Z,0
2017-11-12T00:20:34.084Z,0
2017-11-12T00:21:35.965Z,0
2017-11-12T00:22:37.843Z,0
2017-11-12T00:23:39.719Z,0
2017-11-12T00:24:41.533Z,0
2017-11-12T00:25:43.346Z,0
2017-11-12T00:26:45.224Z,0
2017-11-12T00:27:47.097Z,0
2017-11-12T00:28:48.986Z,0
2017-11-12T00:30:03.139Z,0
2017-11-12T00:31:05.023Z,0
2017-11-12T00:32:06.898Z,0
2017-11-12T00:33:08.773Z,0
2017-11-12T00:34:10.594Z,0
2017-11-12T00:35:12.406Z,0
2017-11-12T00:36:14.286Z,0
2017-11-12T00:37:16.163Z,0
2017-11-12T00:38:18.041Z,0
2017-11-12T00:39:32.194Z,0
2017-11-12T00:40:34.073Z,0
2017-11-12T00:41:35.955Z,0
2017-11-12T00:42:37.831Z,0
2017-11-12T00:43:39.643Z,0
2017-11-12T00:44:41.457Z,0
2017-11-12T00:45:43.337Z,0
2017-11-12T00:46:45.213Z,0
2017-11-12T00:47:47.092Z,0
2017-11-12T00:49:01.242Z,0
2017-11-12T00:50:03.122Z,0
2017-11-12T00:51:05.002Z,0
2017-11-12T00:52:06.877Z,0
2017-11-12T00:53:08.697Z,0
2017-11-12T00:54:10.510Z,0
2017-11-12T00:55:12.389Z,0
2017-11-12T00:56:14.265Z,0
2017-11-12T00:57:16.146Z,0
2017-11-12T00:58:30.301Z,0
2017-11-12T00:59:32.176Z,0
2017-11-12T01:00:34.055Z,0
2017-11-12T01:01:35.931Z,0
2017-11-12T01:02:37.765Z,0
2017-11-12T01:03:39.562Z,0
2017-11-12T01:04:41.443Z,0
2017-11-12T01:05:43.320Z,0
2017-11-12T01:06:45.200Z,0
2017-11-12T01:07:59.351Z,0
2017-11-12T01:09:01.229Z,0
2017-11-12T01:10:03.111Z,0
2017-11-12T01:11:04.980Z,0
2017-11-12T01:12:06.796Z,0
2017-11-12T01:13:08.606Z,0
2017-11-12T01:14:10.483Z,0
2017-11-12T01:15:12.356Z,0
2017-11-12T01:16:14.233Z,0
2017-11-12T01:17:28.433Z,0
2017-11-12T01:18:30.311Z,0
2017-11-12T01:19:32.188Z,0
2017-11-12T01:20:34.063Z,0
2017-11-12T01:21:35.878Z,0
2017-11-12T01:22:37.693Z,0
2017-11-12T01:23:39.571Z,0
2017-11-12T01:24:41.444Z,0
2017-11-12T01:25:43.320Z,0
2017-11-12T01:26:57.469Z,0
2017-11-12T01:27:59.349Z,0
2017-11-12T01:29:01.223Z,0
2017-11-12T01:30:03.109Z,0
2017-11-12T01:31:04.915Z,0
2017-11-12T01:32:06.729Z,0
2017-11-12T01:33:08.606Z,0
2017-11-12T01:34:10.484Z,0
2017-11-12T01:35:12.355Z,0
2017-11-12T01:36:26.505Z,0
2017-11-12T01:37:28.385Z,0
2017-11-12T01:38:30.270Z,0
2017-11-12T01:39:32.137Z,0
2017-11-12T01:40:33.952Z,0
2017-11-12T01:41:35.768Z,0
2017-11-12T01:42:37.645Z,0
2017-11-12T01:43:39.519Z,0
2017-11-12T01:44:41.394Z,0
2017-11-12T01:45:55.547Z,0
2017-11-12T01:46:57.424Z,0
2017-11-12T01:47:59.303Z,0
2017-11-12T01:49:01.179Z,0
2017-11-12T01:50:02.991Z,0
2017-11-12T01:51:04.803Z,0
2017-11-12T01:52:06.682Z,0
2017-11-12T01:53:08.555Z,0
2017-11-12T01:54:10.429Z,0
2017-11-12T01:55:24.580Z,0
2017-11-12T01:56:26.457Z,0
2017-11-12T01:57:28.334Z,0
2017-11-12T01:58:30.210Z,0
2017-11-12T01:59:32.024Z,0
2017-11-12T02:00:33.839Z,0
2017-11-12T02:01:35.717Z,0
2017-11-12T02:02:37.594Z,0
2017-11-12T02:03:39.467Z,0
2017-11-12T02:04:53.619Z,0
2017-11-12T02:05:55.498Z,0
2017-11-12T02:06:57.377Z,0
2017-11-12T02:07:59.251Z,0
2017-11-12T02:09:01.067Z,0
2017-11-12T02:10:02.880Z,0
2017-11-12T02:11:04.757Z,0
2017-11-12T02:12:06.632Z,0
2017-11-12T02:13:08.511Z,0
2017-11-12T02:14:22.658Z,0
2017-11-12T02:15:24.537Z,0
2017-11-12T02:16:26.418Z,0
2017-11-12T02:17:28.291Z,0
2017-11-12T02:18:30.108Z,0
2017-11-12T02:19:31.922Z,0
2017-11-12T02:20:33.805Z,0
2017-11-12T02:21:35.679Z,0
2017-11-12T02:22:37.554Z,0
2017-11-12T02:23:51.708Z,0
2017-11-12T02:24:53.586Z,0
2017-11-12T02:25:55.464Z,0
2017-11-12T02:26:57.344Z,0
2017-11-12T02:27:59.156Z,0
2017-11-12T02:29:00.971Z,0
2017-11-12T02:30:02.854Z,0
2017-11-12T02:31:04.725Z,0
2017-11-12T02:32:06.601Z,0
2017-11-12T02:33:20.756Z,0
2017-11-12T02:34:22.627Z,0
2017-11-12T02:35:24.503Z,0
2017-11-12T02:36:26.377Z,0
2017-11-12T02:37:28.192Z,0
2017-11-12T02:38:30.006Z,0
2017-11-12T02:39:31.878Z,0
2017-11-12T02:40:33.753Z,0
2017-11-12T02:41:35.627Z,0
2017-11-12T02:42:49.775Z,0
2017-11-12T02:43:51.653Z,0
2017-11-12T02:44:53.532Z,0
2017-11-12T02:45:55.403Z,0
2017-11-12T02:46:57.218Z,0
2017-11-12T02:47:59.030Z,0
2017-11-12T02:49:00.901Z,0
2017-11-12T02:50:02.777Z,0
2017-11-12T02:51:04.657Z,0
2017-11-12T02:52:18.845Z,0
2017-11-12T02:53:20.721Z,0
2017-11-12T02:54:22.599Z,0
2017-11-12T02:55:24.469Z,0
2017-11-12T02:56:26.283Z,0
2017-11-12T02:57:28.095Z,0
2017-11-12T02:58:29.972Z,0
2017-11-12T02:59:31.849Z,0
2017-11-12T03:00:33.725Z,0
2017-11-12T03:01:47.871Z,0
2017-11-12T03:02:49.764Z,0
2017-11-12T03:03:51.628Z,0
2017-11-12T03:04:53.502Z,0
2017-11-12T03:05:55.315Z,0
2017-11-12T03:06:57.127Z,0
2017-11-12T03:07:59.002Z,0
2017-11-12T03:09:00.877Z,0
2017-11-12T03:10:02.752Z,0
2017-11-12T03:11:16.900Z,0
2017-11-12T03:12:18.776Z,0
2017-11-12T03:13:20.652Z,0
2017-11-12T03:14:22.524Z,0
2017-11-12T03:15:24.341Z,0
2017-11-12T03:16:26.149Z,0
2017-11-12T03:17:28.021Z,0
2017-11-12T03:18:29.899Z,0
2017-11-12T03:19:31.772Z,0
2017-11-12T03:20:45.918Z,0
2017-11-12T03:21:47.796Z,0
2017-11-12T03:22:49.675Z,0
2017-11-12T03:23:51.546Z,0
2017-11-12T03:24:53.356Z,0
2017-11-12T03:25:55.170Z,0
2017-11-12T03:26:57.043Z,0
2017-11-12T03:27:58.919Z,0
2017-11-12T03:29:00.796Z,0
2017-11-12T03:30:14.975Z,0
2017-11-12T03:31:16.789Z,0
2017-11-12T03:32:18.601Z,0
2017-11-12T03:33:20.435Z,0
2017-11-12T03:34:22.307Z,0
2017-11-12T03:35:24.188Z,0
2017-11-12T03:36:26.008Z,0
2017-11-12T03:37:27.822Z,0
2017-11-12T03:38:29.635Z,0
2017-11-12T03:39:43.891Z,0
2017-11-12T03:40:45.772Z,0
2017-11-12T03:41:47.646Z,0
2017-11-12T03:42:49.516Z,0
2017-11-12T03:43:51.330Z,0
2017-11-12T03:44:53.141Z,0
2017-11-12T03:45:54.954Z,0
2017-11-12T03:46:56.766Z,0
2017-11-12T03:47:58.578Z,0
2017-11-12T03:49:12.722Z,0
2017-11-12T03:50:14.606Z,0
2017-11-12T03:51:16.483Z,0
2017-11-12T03:52:18.356Z,0
2017-11-12T03:53:20.168Z,0
2017-11-12T03:54:21.982Z,0
2017-11-12T03:55:23.856Z,0
2017-11-12T03:56:25.732Z,0
2017-11-12T03:57:27.606Z,0
2017-11-12T03:58:41.755Z,0
2017-11-12T03:59:43.631Z,0
2017-11-12T04:00:45.509Z,0
2017-11-12T04:01:47.383Z,0
2017-11-12T04:02:49.195Z,0
2017-11-12T04:03:51.008Z,0
2017-11-12T04:04:52.882Z,0
2017-11-12T04:05:54.755Z,0
2017-11-12T04:06:56.630Z,0
2017-11-12T04:08:10.777Z,0
2017-11-12T04:09:12.656Z,0
2017-11-12T04:10:14.533Z,0
2017-11-12T04:11:16.405Z,0
2017-11-12T04:12:18.218Z,0
2017-11-12T04:13:20.031Z,0
2017-11-12T04:14:21.905Z,0
2017-11-12T04:15:23.780Z,0
2017-11-12T04:16:25.655Z,0
2017-11-12T04:17:39.799Z,0
2017-11-12T04:18:41.678Z,0
2017-11-12T04:19:43.555Z,0
2017-11-12T04:20:45.429Z,0
2017-11-12T04:21:47.241Z,0
2017-11-12T04:22:49.052Z,0
2017-11-12T04:23:50.928Z,0
2017-11-12T04:24:52.813Z,0
2017-11-12T04:25:54.681Z,0
2017-11-12T04:27:08.826Z,0
2017-11-12T04:28:10.705Z,0
2017-11-12T04:29:12.585Z,0
2017-11-12T04:30:14.461Z,0
2017-11-12T04:31:16.274Z,0
2017-11-12T04:32:18.085Z,0
2017-11-12T04:33:19.961Z,0
2017-11-12T04:34:21.837Z,0
2017-11-12T04:35:23.713Z,0
2017-11-12T04:36:37.909Z,0
2017-11-12T04:37:39.785Z,0
2017-11-12T04:38:41.659Z,0
2017-11-12T04:39:43.530Z,0
2017-11-12T04:40:45.343Z,0
2017-11-12T04:41:47.160Z,0
2017-11-12T04:42:49.030Z,0
2017-11-12T04:43:50.904Z,0
2017-11-12T04:44:52.778Z,0
2017-11-12T04:46:06.926Z,0
2017-11-12T04:47:08.802Z,0
2017-11-12T04:48:10.684Z,0
2017-11-12T04:49:12.560Z,0
2017-11-12T04:50:14.373Z,0
2017-11-12T04:51:16.186Z,0
2017-11-12T04:52:18.064Z,0
2017-11-12T04:53:19.938Z,0
2017-11-12T04:54:21.814Z,0
2017-11-12T04:55:36.012Z,0
2017-11-12T04:56:37.886Z,0
2017-11-12T04:57:39.763Z,0
2017-11-12T04:58:41.636Z,0
2017-11-12T04:59:43.447Z,0
2017-11-12T05:00:45.260Z,0
2017-11-12T05:01:47.138Z,0
2017-11-12T05:02:49.012Z,0
2017-11-12T05:03:50.886Z,0
2017-11-12T05:05:05.086Z,0
2017-11-12T05:06:06.958Z,0
2017-11-12T05:07:08.834Z,0
2017-11-12T05:08:10.709Z,0
2017-11-12T05:09:12.523Z,0
2017-11-12T05:10:14.335Z,0
2017-11-12T05:11:16.214Z,0
2017-11-12T05:12:18.088Z,0
2017-11-12T05:13:19.965Z,0
2017-11-12T05:14:34.112Z,0
2017-11-12T05:15:35.990Z,0
2017-11-12T05:16:37.865Z,0
2017-11-12T05:17:39.746Z,0
2017-11-12T05:18:41.553Z,0
2017-11-12T05:19:43.366Z,0
2017-11-12T05:20:45.243Z,0
2017-11-12T05:21:47.121Z,0
2017-11-12T05:22:48.997Z,0
2017-11-12T05:24:03.142Z,0
2017-11-12T05:25:05.025Z,0
2017-11-12T05:26:06.903Z,0
2017-11-12T05:27:08.779Z,0
2017-11-12T05:28:10.592Z,0
2017-11-12T05:29:12.404Z,0
2017-11-12T05:30:14.284Z,0
2017-11-12T05:31:16.165Z,0
2017-11-12T05:32:18.033Z,0
2017-11-12T05:33:32.184Z,0
2017-11-12T05:34:34.063Z,0
2017-11-12T05:35:35.940Z,0
2017-11-12T05:36:37.814Z,0
2017-11-12T05:37:39.625Z,0
2017-11-12T05:38:41.440Z,0
2017-11-12T05:39:43.316Z,0
2017-11-12T05:40:45.190Z,0
2017-11-12T05:41:47.066Z,4
2017-11-12T05:43:01.215Z,0
2017-11-12T05:44:03.091Z,4
2017-11-12T05:45:04.973Z,0
2017-11-12T05:46:06.846Z,4
2017-11-12T05:47:08.658Z,8
2017-11-12T05:48:10.470Z,4
2017-11-12T05:49:12.344Z,8
2017-11-12T05:50:14.221Z,8
2017-11-12T05:51:16.096Z,12
2017-11-12T05:52:30.244Z,12
2017-11-12T05:53:32.121Z,16
2017-11-12T05:54:33.999Z,16
2017-11-12T05:55:35.877Z,20
2017-11-12T05:56:37.688Z,20
2017-11-12T05:57:39.501Z,24
2017-11-12T05:58:41.382Z,28
2017-11-12T05:59:43.256Z,32
2017-11-12T06:00:45.131Z,36
2017-11-12T06:01:59.280Z,40
2017-11-12T06:03:01.158Z,48
2017-11-12T06:04:03.048Z,48
2017-11-12T06:05:04.923Z,56
2017-11-12T06:06:06.733Z,64
2017-11-12T06:07:08.549Z,80
2017-11-12T06:08:10.433Z,84
2017-11-12T06:09:12.316Z,100
2017-11-12T06:10:14.200Z,124
2017-11-12T06:11:28.337Z,156
2017-11-12T06:12:30.218Z,184
2017-11-12T06:13:32.097Z,216
2017-11-12T06:14:33.976Z,244
2017-11-12T06:15:35.794Z,276
2017-11-12T06:16:37.625Z,316
2017-11-12T06:17:39.491Z,332
2017-11-12T06:18:41.378Z,336
2017-11-12T06:19:43.246Z,352
2017-11-12T06:20:57.398Z,380
2017-11-12T06:21:59.281Z,404
2017-11-12T06:23:01.162Z,428
2017-11-12T06:24:03.041Z,448
2017-11-12T06:25:04.866Z,476
2017-11-12T06:26:06.678Z,532
2017-11-12T06:27:08.555Z,600
2017-11-12T06:28:10.433Z,664
2017-11-12T06:29:12.310Z,696
2017-11-12T06:30:26.459Z,700
2017-11-12T06:31:28.346Z,720
2017-11-12T06:32:30.225Z,740
2017-11-12T06:33:32.113Z,764
2017-11-12T06:34:33.918Z,808
2017-11-12T06:35:35.737Z,852
2017-11-12T06:36:37.613Z,900
2017-11-12T06:37:39.490Z,948
2017-11-12T06:38:41.373Z,1008
2017-11-12T06:39:55.524Z,1108
2017-11-12T06:40:57.405Z,1132
2017-11-12T06:41:59.286Z,1132
2017-11-12T06:43:01.163Z,1176
2017-11-12T06:44:02.982Z,1228
2017-11-12T06:45:04.804Z,1268
2017-11-12T06:46:06.680Z,1316
2017-11-12T06:47:08.557Z,1372
2017-11-12T06:48:10.438Z,1436
2017-11-12T06:49:24.592Z,1532
2017-11-12T06:50:26.475Z,1588
2017-11-12T06:51:28.356Z,1636
2017-11-12T06:52:30.232Z,1716
2017-11-12T06:53:32.057Z,1848
2017-11-12T06:54:33.868Z,1960
2017-11-12T06:55:35.748Z,2048
2017-11-12T06:56:37.628Z,2104
2017-11-12T06:57:39.510Z,2180
2017-11-12T06:58:53.666Z,2256
2017-11-12T06:59:55.550Z,2244
2017-11-12T07:00:57.430Z,2292
2017-11-12T07:01:59.316Z,2312
2017-11-12T07:03:01.128Z,2316
2017-11-12T07:04:02.948Z,2284
2017-11-12T07:05:04.861Z,2292
2017-11-12T07:06:06.717Z,2336
2017-11-12T07:07:08.598Z,2392
2017-11-12T07:08:22.755Z,2520
2017-11-12T07:09:24.640Z,2628
2017-11-12T07:10:26.518Z,2724
2017-11-12T07:11:28.400Z,2836
2017-11-12T07:12:30.220Z,2940
2017-11-12T07:13:32.047Z,3084
2017-11-12T07:14:33.927Z,3244
2017-11-12T07:15:35.810Z,3392
2017-11-12T07:16:37.693Z,3520
2017-11-12T07:17:51.848Z,3660
2017-11-12T07:18:53.732Z,3740
2017-11-12T07:19:55.613Z,3800
2017-11-12T07:20:57.507Z,3828
2017-11-12T07:21:59.326Z,3856
2017-11-12T07:23:01.148Z,3896
2017-11-12T07:24:03.030Z,3940
2017-11-12T07:25:04.912Z,3916
2017-11-12T07:26:06.800Z,3836
2017-11-12T07:27:20.984Z,3604
2017-11-12T07:28:22.808Z,3392
2017-11-12T07:29:24.631Z,3116
2017-11-12T07:30:26.472Z,2804
2017-11-12T07:31:28.353Z,2716
2017-11-12T07:32:30.237Z,2820
2017-11-12T07:33:32.077Z,3124
2017-11-12T07:34:33.896Z,3488
2017-11-12T07:35:36.141Z,3704
2017-11-12T07:36:50.324Z,3228
2017-11-12T07:37:52.209Z,3136
2017-11-12T07:38:54.090Z,3324
2017-11-12T07:39:55.977Z,3428
2017-11-12T07:40:57.797Z,3428
2017-11-12T07:41:59.660Z,3500
2017-11-12T07:43:01.630Z,3484
2017-11-12T07:44:03.507Z,3252
2017-11-12T07:45:05.923Z,3076
2017-11-12T07:46:20.046Z,2944
2017-11-12T07:47:21.928Z,2900
2017-11-12T07:48:23.812Z,2956
2017-11-12T07:49:25.689Z,3084
2017-11-12T07:50:27.509Z,3208
2017-11-12T07:51:29.345Z,3352
2017-11-12T07:52:31.229Z,3420
2017-11-12T07:53:33.128Z,3444
2017-11-12T07:54:34.995Z,3400
2017-11-12T07:55:49.177Z,3544
2017-11-12T07:56:51.061Z,3456
2017-11-12T07:57:52.943Z,3384
2017-11-12T07:58:54.834Z,3328
2017-11-12T07:59:56.656Z,3336
2017-11-12T08:00:58.478Z,3344
2017-11-12T08:02:00.363Z,3276
2017-11-12T08:03:02.200Z,3644
2017-11-12T08:04:04.022Z,3548
2017-11-12T08:05:18.179Z,3560
2017-11-12T08:06:20.069Z,3856
2017-11-12T08:07:21.946Z,3776
2017-11-12T08:08:23.831Z,3812
2017-11-12T08:09:25.652Z,3832
2017-11-12T08:10:27.487Z,3820
2017-11-12T08:11:29.368Z,3804
2017-11-12T08:12:31.252Z,3848
2017-11-12T08:13:33.138Z,3948
2017-11-12T08:14:47.294Z,4156
2017-11-12T08:15:49.182Z,4408
2017-11-12T08:16:51.061Z,4704
2017-11-12T08:17:52.947Z,4928
2017-11-12T08:18:54.765Z,5072
2017-11-12T08:19:56.586Z,5224
2017-11-12T08:20:58.469Z,5488
2017-11-12T08:22:00.351Z,5668
2017-11-12T08:23:02.232Z,5740
2017-11-12T08:24:16.391Z,5820
2017-11-12T08:25:18.277Z,5680
2017-11-12T08:26:20.158Z,5580
2017-11-12T08:27:22.045Z,5428
2017-11-12T08:28:23.869Z,5384
2017-11-12T08:29:25.690Z,5376
2017-11-12T08:30:27.574Z,5272
2017-11-12T08:31:29.456Z,5100
2017-11-12T08:32:31.334Z,4892
2017-11-12T08:33:45.493Z,4776
2017-11-12T08:34:47.377Z,4780
2017-11-12T08:35:49.260Z,4892
2017-11-12T08:36:51.146Z,5120
2017-11-12T08:37:52.968Z,5320
2017-11-12T08:38:54.793Z,5504
2017-11-12T08:39:56.675Z,5604
2017-11-12T08:40:58.557Z,5516
2017-11-12T08:42:00.439Z,5268
2017-11-12T08:43:14.607Z,4900
2017-11-12T08:44:17.039Z,4652
2017-11-12T08:45:19.714Z,4612
2017-11-12T08:46:22.354Z,4900
2017-11-12T08:47:24.884Z,5588
2017-11-12T08:48:27.763Z,6320
2017-11-12T08:49:30.605Z,6760
2017-11-12T08:50:33.146Z,6724
2017-11-12T08:51:35.905Z,6676
2017-11-12T08:52:50.879Z,6664
2017-11-12T08:53:53.599Z,6828
2017-11-12T08:54:55.961Z,6884
2017-11-12T08:55:59.169Z,6880
2017-11-12T08:57:01.137Z,6720
2017-11-12T08:58:02.961Z,6780
2017-11-12T08:59:04.844Z,6804
2017-11-12T09:00:07.073Z,6832
2017-11-12T09:01:09.033Z,6728
2017-11-12T09:02:23.191Z,6560
2017-11-12T09:03:25.076Z,6704
2017-11-12T09:04:26.958Z,7008
2017-11-12T09:05:28.838Z,7332
2017-11-12T09:06:30.659Z,7512
2017-11-12T09:07:32.480Z,7504
2017-11-12T09:08:34.371Z,7452
2017-11-12T09:09:36.263Z,7404
2017-11-12T09:10:38.146Z,7352
2017-11-12T09:11:52.305Z,7352
2017-11-12T09:12:54.194Z,7308
2017-11-12T09:13:56.080Z,7244
2017-11-12T09:14:57.963Z,7124
2017-11-12T09:15:59.800Z,7136
2017-11-12T09:17:01.616Z,7152
2017-11-12T09:18:04.030Z,7060
2017-11-12T09:19:06.904Z,6960
2017-11-12T09:20:09.695Z,6888
2017-11-12T09:21:24.378Z,6796
2017-11-12T09:22:26.817Z,6624
2017-11-12T09:23:28.802Z,6416
2017-11-12T09:24:30.691Z,6300
2017-11-12T09:25:32.509Z,6156
2017-11-12T09:26:34.329Z,6076
2017-11-12T09:27:36.215Z,6072
2017-11-12T09:28:38.102Z,6084
2017-11-12T09:29:39.993Z,6116
2017-11-12T09:30:54.148Z,6192
2017-11-12T09:31:56.115Z,6188
2017-11-12T09:32:57.967Z,6164
2017-11-12T09:33:59.857Z,5984
2017-11-12T09:35:01.679Z,5896
2017-11-12T09:36:03.500Z,6068
2017-11-12T09:37:05.409Z,6428
2017-11-12T09:38:07.295Z,6680
2017-11-12T09:39:09.178Z,6932
2017-11-12T09:40:23.344Z,6932
2017-11-12T09:41:25.238Z,7112
2017-11-12T09:42:27.121Z,7312
2017-11-12T09:43:29.050Z,7308
2017-11-12T09:44:30.872Z,7264
2017-11-12T09:45:32.695Z,7236
2017-11-12T09:46:34.597Z,7236
2017-11-12T09:47:36.499Z,7212
2017-11-12T09:48:38.695Z,7552
2017-11-12T09:49:53.180Z,8300
2017-11-12T09:50:55.389Z,8864
2017-11-12T09:51:57.243Z,8984
2017-11-12T09:52:59.122Z,8992
2017-11-12T09:54:00.945Z,9004
2017-11-12T09:55:02.803Z,8848
2017-11-12T09:56:04.688Z,8332
2017-11-12T09:57:06.595Z,7596
2017-11-12T09:58:08.827Z,7136
2017-11-12T09:59:23.033Z,7068
2017-11-12T10:00:24.913Z,7156
2017-11-12T10:01:26.815Z,6936
2017-11-12T10:02:29.067Z,6896
2017-11-12T10:03:31.196Z,7164
2017-11-12T10:04:33.031Z,7340
2017-11-12T10:05:34.913Z,7236
2017-11-12T10:06:36.801Z,6936
2017-11-12T10:07:38.693Z,6720
2017-11-12T10:08:52.843Z,6732
2017-11-12T10:09:54.731Z,6928
2017-11-12T10:10:56.617Z,7328
2017-11-12T10:11:58.878Z,7512
2017-11-12T10:13:00.719Z,7644
2017-11-12T10:14:02.541Z,7372
2017-11-12T10:15:04.444Z,7072
2017-11-12T10:16:06.330Z,6472
2017-11-12T10:17:08.209Z,5752
2017-11-12T10:18:22.373Z,4972
2017-11-12T10:19:24.682Z,4804
2017-11-12T10:20:26.570Z,5416
2017-11-12T10:21:28.461Z,6020
2017-11-12T10:22:30.298Z,6176
2017-11-12T10:23:32.142Z,6400
2017-11-12T10:24:34.025Z,6116
2017-11-12T10:25:35.915Z,6292
2017-11-12T10:26:37.805Z,6248
2017-11-12T10:27:51.965Z,6672
2017-11-12T10:28:54.247Z,7420
2017-11-12T10:29:56.113Z,8088
2017-11-12T10:30:57.994Z,8368
2017-11-12T10:32:00.138Z,8344
2017-11-12T10:33:01.962Z,7704
2017-11-12T10:34:03.881Z,7728
2017-11-12T10:35:05.752Z,7924
2017-11-12T10:36:08.173Z,8024
2017-11-12T10:37:22.319Z,7548
2017-11-12T10:38:24.204Z,7348
2017-11-12T10:39:26.091Z,7624
2017-11-12T10:40:27.985Z,8572
2017-11-12T10:41:29.809Z,9024
2017-11-12T10:42:31.637Z,9408
2017-11-12T10:43:33.529Z,9260
2017-11-12T10:44:35.426Z,9028
2017-11-12T10:45:37.297Z,8916
2017-11-12T10:46:51.453Z,8652
2017-11-12T10:47:53.360Z,8536
2017-11-12T10:48:55.256Z,8508
2017-11-12T10:49:57.140Z,8648
2017-11-12T10:50:58.967Z,8668
2017-11-12T10:52:00.791Z,8796
2017-11-12T10:53:02.676Z,8852
2017-11-12T10:54:04.565Z,8836
2017-11-12T10:55:06.504Z,8532
2017-11-12T10:56:20.655Z,8472
2017-11-12T10:57:22.540Z,8384
2017-11-12T10:58:24.422Z,8120
2017-11-12T10:59:26.330Z,7544
2017-11-12T11:00:28.150Z,7108
2017-11-12T11:01:29.981Z,6596
2017-11-12T11:02:31.867Z,5760
2017-11-12T11:03:33.752Z,5096
2017-11-12T11:04:35.640Z,5300
2017-11-12T11:05:49.798Z,6044
2017-11-12T11:06:51.687Z,6088
2017-11-12T11:07:53.572Z,6116
2017-11-12T11:08:55.884Z,6316
2017-11-12T11:09:58.144Z,6032
2017-11-12T11:10:59.930Z,5960
2017-11-12T11:12:01.819Z,6348
2017-11-12T11:13:03.702Z,6792
2017-11-12T11:14:05.586Z,7144
2017-11-12T11:15:19.746Z,7488
2017-11-12T11:16:21.634Z,7720
2017-11-12T11:17:23.516Z,7760
2017-11-12T11:18:25.403Z,7468
2017-11-12T11:19:27.230Z,7212
2017-11-12T11:20:29.380Z,7040
2017-11-12T11:21:31.284Z,6924
2017-11-12T11:22:33.180Z,6784
2017-11-12T11:23:35.056Z,6732
2017-11-12T11:24:49.216Z,6636
2017-11-12T11:25:51.110Z,6612
2017-11-12T11:26:52.986Z,6612
2017-11-12T11:27:54.871Z,6200
2017-11-12T11:28:56.712Z,5836
2017-11-12T11:29:58.548Z,5512
2017-11-12T11:31:00.430Z,5348
2017-11-12T11:32:02.313Z,4944
2017-11-12T11:33:04.226Z,4780
2017-11-12T11:34:18.388Z,4648
2017-11-12T11:35:20.275Z,4536
2017-11-12T11:36:22.159Z,4212
2017-11-12T11:37:24.043Z,3640
2017-11-12T11:38:25.871Z,3264
2017-11-12T11:39:27.692Z,3048
2017-11-12T11:40:29.577Z,3192
2017-11-12T11:41:31.467Z,3556
2017-11-12T11:42:33.347Z,3720
2017-11-12T11:43:47.556Z,3724
2017-11-12T11:44:49.452Z,3728
2017-11-12T11:45:51.363Z,4008
2017-11-12T11:46:53.265Z,4308
2017-11-12T11:47:55.088Z,4600
2017-11-12T11:48:56.910Z,4828
2017-11-12T11:49:59.097Z,5356
2017-11-12T11:51:00.947Z,5932
2017-11-12T11:52:02.879Z,6180
2017-11-12T11:53:17.000Z,6328
2017-11-12T11:54:18.885Z,6592
2017-11-12T11:55:20.770Z,6728
2017-11-12T11:56:22.655Z,6592
2017-11-12T11:57:24.475Z,6200
2017-11-12T11:58:26.677Z,5520
2017-11-12T11:59:28.594Z,4732
2017-11-12T12:00:30.475Z,4100
2017-11-12T12:01:32.356Z,3580
2017-11-12T12:02:46.538Z,3120
2017-11-12T12:03:48.442Z,2904
2017-11-12T12:04:50.327Z,2680
2017-11-12T12:05:52.208Z,2624
2017-11-12T12:06:54.030Z,2900
2017-11-12T12:07:55.851Z,3348
2017-11-12T12:08:57.737Z,3540
2017-11-12T12:09:59.620Z,3588
2017-11-12T12:11:01.514Z,3596
2017-11-12T12:12:15.683Z,3376
2017-11-12T12:13:17.573Z,3064
2017-11-12T12:14:19.466Z,2668
2017-11-12T12:15:21.341Z,2552
2017-11-12T12:16:23.169Z,2368
2017-11-12T12:17:24.989Z,2420
2017-11-12T12:18:26.875Z,2836
2017-11-12T12:19:28.760Z,3232
2017-11-12T12:20:30.649Z,3652
2017-11-12T12:21:44.809Z,4200
2017-11-12T12:22:46.696Z,4468
2017-11-12T12:23:48.582Z,4628
2017-11-12T12:24:50.471Z,4660
2017-11-12T12:25:52.292Z,4624
2017-11-12T12:26:54.121Z,4452
2017-11-12T12:27:55.974Z,3924
2017-11-12T12:28:57.795Z,3256
2017-11-12T12:29:59.642Z,2872
2017-11-12T12:31:13.800Z,2752
2017-11-12T12:32:15.696Z,2736
2017-11-12T12:33:17.581Z,2748
2017-11-12T12:34:19.848Z,2804
2017-11-12T12:35:21.688Z,2752
2017-11-12T12:36:23.512Z,2724
2017-11-12T12:37:25.406Z,2656
2017-11-12T12:38:27.672Z,2276
2017-11-12T12:39:29.633Z,2132
2017-11-12T12:40:43.761Z,2140
2017-11-12T12:41:45.671Z,2292
2017-11-12T12:42:47.910Z,2484
2017-11-12T12:43:49.834Z,2440
2017-11-12T12:44:51.698Z,2448
2017-11-12T12:45:53.846Z,2348
2017-11-12T12:46:55.717Z,2216
2017-11-12T12:47:57.942Z,2192
2017-11-12T12:48:59.804Z,2172
2017-11-12T12:50:13.990Z,2080
2017-11-12T12:51:15.919Z,2040
2017-11-12T12:52:17.809Z,1924
2017-11-12T12:53:20.037Z,1872
2017-11-12T12:54:21.880Z,1904
2017-11-12T12:55:23.721Z,1948
2017-11-12T12:56:25.630Z,2080
2017-11-12T12:57:27.513Z,2252
2017-11-12T12:58:29.405Z,2336
2017-11-12T12:59:43.999Z,2484
2017-11-12T13:00:45.876Z,2548
2017-11-12T13:01:48.116Z,2492
2017-11-12T13:02:50.041Z,2388
2017-11-12T13:03:51.862Z,2436
2017-11-12T13:04:53.696Z,2488
2017-11-12T13:05:55.626Z,2452
2017-11-12T13:06:57.531Z,2500
2017-11-12T13:07:59.430Z,2496
2017-11-12T13:09:13.615Z,2488
2017-11-12T13:10:15.527Z,2452
2017-11-12T13:11:17.398Z,2416
2017-11-12T13:12:19.278Z,2292
2017-11-12T13:13:21.101Z,2292
2017-11-12T13:14:22.921Z,2316
2017-11-12T13:15:24.806Z,2288
2017-11-12T13:16:26.687Z,2252
2017-11-12T13:17:28.940Z,2128
2017-11-12T13:18:43.470Z,2024
2017-11-12T13:19:45.320Z,2040
2017-11-12T13:20:47.221Z,2012
2017-11-12T13:21:49.121Z,1992
2017-11-12T13:22:50.925Z,2008
2017-11-12T13:23:52.747Z,2044
2017-11-12T13:24:54.637Z,2044
2017-11-12T13:25:56.514Z,2016
2017-11-12T13:26:58.400Z,2000
2017-11-12T13:28:12.579Z,2032
2017-11-12T13:29:14.471Z,2088
2017-11-12T13:30:16.353Z,2120
2017-11-12T13:31:18.240Z,2124
2017-11-12T13:32:20.064Z,2112
2017-11-12T13:33:21.900Z,2080
2017-11-12T13:34:23.799Z,2032
2017-11-12T13:35:25.671Z,1960
2017-11-12T13:36:27.555Z,1880
2017-11-12T13:37:41.712Z,1848
2017-11-12T13:38:43.597Z,1840
2017-11-12T13:39:45.476Z,1844
2017-11-12T13:40:47.363Z,1840
2017-11-12T13:41:49.184Z,1796
2017-11-12T13:42:51.014Z,1756
2017-11-12T13:43:52.895Z,1712
2017-11-12T13:44:54.782Z,1680
2017-11-12T13:45:56.665Z,1660
2017-11-12T13:47:10.809Z,1628
2017-11-12T13:48:12.691Z,1608
2017-11-12T13:49:14.578Z,1580
2017-11-12T13:50:16.458Z,1536
2017-11-12T13:51:18.283Z,1480
2017-11-12T13:52:20.104Z,1436
2017-11-12T13:53:21.989Z,1396
2017-11-12T13:54:23.873Z,1356
2017-11-12T13:55:25.755Z,1336
2017-11-12T13:56:39.915Z,1332
2017-11-12T13:57:41.807Z,1340
2017-11-12T13:58:43.700Z,1364
2017-11-12T13:59:45.582Z,1392
2017-11-12T14:00:47.404Z,1412
2017-11-12T14:01:49.642Z,1392
2017-11-12T14:02:51.495Z,1360
2017-11-12T14:03:53.380Z,1324
2017-11-12T14:04:55.261Z,1292
2017-11-12T14:06:09.418Z,1236
2017-11-12T14:07:11.306Z,1180
2017-11-12T14:08:13.184Z,1144
2017-11-12T14:09:15.453Z,1092
2017-11-12T14:10:17.276Z,1052
2017-11-12T14:11:19.102Z,1020
2017-11-12T14:12:20.984Z,996
2017-11-12T14:13:22.865Z,960
2017-11-12T14:14:24.745Z,920
2017-11-12T14:15:38.951Z,928
2017-11-12T14:16:40.835Z,888
2017-11-12T14:17:42.725Z,828
2017-11-12T14:18:44.597Z,828
2017-11-12T14:19:46.420Z,816
2017-11-12T14:20:48.246Z,808
2017-11-12T14:21:50.123Z,820
2017-11-12T14:22:52.007Z,828
2017-11-12T14:23:53.895Z,828
2017-11-12T14:25:08.052Z,804
2017-11-12T14:26:09.936Z,768
2017-11-12T14:27:11.816Z,724
2017-11-12T14:28:13.694Z,704
2017-11-12T14:29:15.511Z,684
2017-11-12T14:30:17.337Z,668
2017-11-12T14:31:19.219Z,628
2017-11-12T14:32:21.105Z,656
2017-11-12T14:33:22.993Z,684
2017-11-12T14:34:37.141Z,632
2017-11-12T14:35:39.026Z,608
2017-11-12T14:36:40.908Z,584
2017-11-12T14:37:42.789Z,560
2017-11-12T14:38:44.609Z,528
2017-11-12T14:39:46.428Z,512